Bayfield, CO (81122)

6:11 AM MDT on August 26, 2016 (GMT -0600)
APRSWXNET | | Change Station

Elev 8198 ft 37.40 °N, 107.57 °W | Updated 28 minutes ago

Overcast
Overcast
47 °F
Feels Like 47 °F
N
0
Wind Variable Wind from WNW
Gusts 0.0 mph

Today
High -- | Low -- °F
--% Chance of Precip.
Yesterday
High -- | Low -- °F
Precip. -- in
Pressure 30.06 in
Visibility 10.0 miles
Clouds Overcast 6500 ft
Windchill 47 °F
Dew Point 43 °F
Humidity 85%
Rainfall in
Snow Depth Not available.
6:36 AM 7:47 PM
Waning Crescent, 35% visible
METAR KDRO 261153Z AUTO 03003KT 10SM OVC065 11/08 A3026 RMK AO2 SLP178 60000 70006 T01060083 10128 20100 53001 $
Pressure 30.06 in
Visibility 10.0 miles
Clouds Overcast 6500 ft
Windchill 47 °F
Dew Point 43 °F
Humidity 85%
Rainfall in
Snow Depth Not available.
6:36 AM 7:47 PM
Waning Crescent, 35% visible
METAR KDRO 261153Z AUTO 03003KT 10SM OVC065 11/08 A3026 RMK AO2 SLP178 60000 70006 T01060083 10128 20100 53001 $

10-Day Weather Forecast

Almanac

Astronomy

Aug. 26, 2016 Rise Set
Actual Time
Civil Twilight
Nautical Twilight
Astronomical Twilight
Moon
Length of Visible Light
Length of Day
Tomorrow will be .
, % of the Moon is Illuminated

Today's Extremes

State Highs State Lows

Community

WunderPhotos

Upload Photos

1,935,077 photos uploaded!

WunderBlog® & News

Nearby

Air Quality

  Air Quality AQ Index Pollutant
Not available.

Snow Depth

Station Depth Elevation

Earthquake Activity

City Distance Mag. Time & Date
Minimum magnitude displayed is 2.5.

Coastal Water Temperatures

Place Temperature

Stations

Nearby Weather Stations

Station Location Temp. Windchill Dew Point Humidity Wind Precip. Elev Updated Type
                   

Watches & Warnings

There are currently no watches in effect.